Time;durP1;ratioP1;P1;durP2;ratioP2;P2;SDS_P1;SDS_P2;PMS_P1;PMS_P2;Temp;Humidity;BMP_temperature;BMP_pressure;BME280_temperature;BME280_humidity;BME280_pressure;Samples;Min_cycle;Max_cycle;Signal;HPM_P1;HPM_P2
2022/07/13 00:00:57;;;;;;;1.83;1.70;;;;;;;18.57;70.72;98821.69;5053904;28;20298;-70
2022/07/13 00:03:23;;;;;;;5.13;2.17;;;;;;;18.54;70.56;98821.34;5053819;28;20209;-70
2022/07/13 00:05:50;;;;;;;3.07;1.90;;;;;;;18.45;70.92;98829.06;5053441;28;20727;-70
2022/07/13 00:08:16;;;;;;;3.87;2.10;;;;;;;18.42;71.35;98832.25;5053589;28;20236;-70
2022/07/13 00:10:43;;;;;;;2.10;1.83;;;;;;;18.27;71.62;98829.34;5053760;28;20205;-70
2022/07/13 00:13:09;;;;;;;2.27;1.83;;;;;;;18.30;70.78;98819.94;5053637;28;20255;-70
2022/07/13 00:15:36;;;;;;;3.73;2.10;;;;;;;18.34;70.84;98829.19;5053635;28;20608;-70
2022/07/13 00:18:02;;;;;;;3.20;2.10;;;;;;;18.32;70.46;98829.41;5053545;28;20288;-70
2022/07/13 00:20:29;;;;;;;3.73;1.80;;;;;;;18.33;69.63;98820.28;5053595;28;20287;-70
2022/07/13 00:22:55;;;;;;;3.40;1.93;;;;;;;18.30;69.48;98819.94;5053330;28;20201;-70
2022/07/13 00:25:22;;;;;;;3.20;1.90;;;;;;;18.29;69.25;98819.16;5053535;28;20202;-70
2022/07/13 00:27:49;;;;;;;2.17;1.70;;;;;;;18.09;70.53;98826.13;5054015;28;20307;-70
2022/07/13 00:30:15;;;;;;;3.33;1.80;;;;;;;18.07;70.38;98826.38;5053227;28;20231;-70
2022/07/13 00:32:41;;;;;;;5.80;1.70;;;;;;;18.01;70.78;98827.34;5053105;28;20694;-70
2022/07/13 00:35:08;;;;;;;2.47;1.60;;;;;;;18.10;70.00;98831.25;5053286;28;20212;-70
2022/07/13 00:37:34;;;;;;;2.13;1.67;;;;;;;18.13;69.93;98824.56;5052947;28;20208;-70
2022/07/13 00:40:01;;;;;;;2.17;1.63;;;;;;;18.05;69.22;98827.69;5052998;28;20739;-70
2022/07/13 00:42:27;;;;;;;4.37;1.70;;;;;;;18.05;69.16;98830.38;5053387;28;20205;-70
2022/07/13 00:44:53;;;;;;;1.80;1.70;;;;;;;18.03;69.01;98827.94;5052993;28;20664;-70
2022/07/13 00:47:20;;;;;;;2.90;1.63;;;;;;;17.98;69.16;98832.41;5053189;28;20224;-70
2022/07/13 00:49:47;;;;;;;2.13;1.70;;;;;;;17.99;69.31;98824.09;5054030;28;20315;-70
2022/07/13 00:52:13;;;;;;;3.10;1.93;;;;;;;17.95;69.79;98832.91;5053248;28;20205;-70
2022/07/13 00:54:43;;;;;;;1.60;1.50;;;;;;;17.94;70.13;98824.03;5052984;28;20215;-70
2022/07/13 00:57:13;;;;;;;2.57;1.67;;;;;;;17.88;70.90;98822.34;5052971;28;20719;-70
2022/07/13 00:59:40;;;;;;;2.87;1.90;;;;;;;17.83;71.53;98826.81;5052969;28;20783;-70
2022/07/13 01:02:07;;;;;;;2.63;1.90;;;;;;;17.76;72.13;98829.69;5053236;28;20209;-70
2022/07/13 01:04:33;;;;;;;3.00;1.90;;;;;;;17.75;72.47;98822.69;5053059;28;20255;-70
2022/07/13 01:07:00;;;;;;;2.70;1.80;;;;;;;17.75;72.75;98825.38;5053027;28;20205;-70
2022/07/13 01:09:27;;;;;;;4.73;2.10;;;;;;;17.77;73.17;98822.41;5053068;28;20311;-70
2022/07/13 01:11:53;;;;;;;2.67;1.90;;;;;;;17.72;73.62;98808.88;5052731;28;20698;-70
2022/07/13 01:14:21;;;;;;;2.37;1.80;;;;;;;17.58;74.24;98813.81;5053074;28;20209;-70
2022/07/13 01:16:48;;;;;;;3.63;2.03;;;;;;;17.62;74.54;98811.44;5053071;28;20292;-70
2022/07/13 01:19:15;;;;;;;3.40;1.70;;;;;;;17.59;74.57;98810.03;5052932;28;20301;-70
2022/07/13 01:21:45;;;;;;;5.07;1.90;;;;;;;17.64;74.72;98810.13;5052670;28;20755;-70
2022/07/13 01:24:12;;;;;;;1.70;1.60;;;;;;;17.65;74.79;98808.25;5053291;28;20209;-70
2022/07/13 01:26:40;;;;;;;2.33;1.63;;;;;;;17.66;74.65;98807.19;5052968;28;20297;-70
2022/07/13 01:29:08;;;;;;;2.60;1.63;;;;;;;17.63;74.67;98805.81;5052724;28;20648;-70
2022/07/13 01:31:41;;;;;;;1.83;1.57;;;;;;;17.68;74.44;98800.50;5052613;28;20201;-70
2022/07/13 01:34:09;;;;;;;2.40;1.50;;;;;;;17.69;74.30;98799.44;5052877;28;20288;-70
2022/07/13 01:36:36;;;;;;;1.30;1.20;;;;;;;17.68;74.59;98811.25;5052915;28;20211;-70
2022/07/13 01:39:04;;;;;;;2.67;1.70;;;;;;;17.71;74.79;98801.88;5052503;28;20300;-70
2022/07/13 01:41:31;;;;;;;2.33;1.47;;;;;;;17.77;74.41;98799.03;5053410;28;20209;-70
2022/07/13 01:43:58;;;;;;;1.50;1.40;;;;;;;17.78;74.55;98803.34;5052838;28;20384;-70
2022/07/13 01:46:25;;;;;;;1.97;1.30;;;;;;;17.78;75.22;98802.56;5053666;28;20208;-70
2022/07/13 01:48:55;;;;;;;3.10;1.73;;;;;;;17.79;74.89;98805.00;5054613;28;20324;-70
2022/07/13 01:51:21;;;;;;;2.53;1.50;;;;;;;17.82;74.82;98801.78;5056356;28;20300;-70
2022/07/13 01:53:47;;;;;;;2.07;1.70;;;;;;;17.77;75.63;98804.41;5056248;28;20205;-70
2022/07/13 01:56:14;;;;;;;2.27;1.50;;;;;;;17.76;75.06;98791.19;5056182;28;20293;-70
2022/07/13 01:58:41;;;;;;;1.40;1.30;;;;;;;17.85;74.45;98795.09;5055854;28;20225;-70
2022/07/13 02:01:07;;;;;;;2.33;1.47;;;;;;;17.87;73.34;98793.78;5056156;28;20292;-69
2022/07/13 02:03:34;;;;;;;3.30;1.43;;;;;;;17.82;73.38;98796.41;5056065;28;20637;-70
2022/07/13 02:06:01;;;;;;;1.10;1.10;;;;;;;17.84;73.64;98794.31;5056037;28;20292;-69
2022/07/13 02:08:27;;;;;;;2.77;1.47;;;;;;;17.80;74.40;98787.78;5055559;28;20671;-70
2022/07/13 02:10:54;;;;;;;2.50;1.70;;;;;;;17.80;74.36;98795.03;5055620;28;20300;-70
2022/07/13 02:13:21;;;;;;;2.20;1.30;;;;;;;17.80;74.20;98792.34;5055873;28;20201;-70
2022/07/13 02:15:48;;;;;;;1.57;1.30;;;;;;;17.76;74.98;98785.81;5055886;28;20205;-70
2022/07/13 02:18:15;;;;;;;1.50;1.30;;;;;;;17.77;74.41;98766.75;5055467;28;20729;-70
2022/07/13 02:20:42;;;;;;;1.53;1.10;;;;;;;17.76;74.33;98762.44;5055478;28;20224;-70
2022/07/13 02:23:08;;;;;;;1.60;1.30;;;;;;;17.75;74.19;98758.13;5055421;28;20572;-70
2022/07/13 02:25:37;;;;;;;2.40;1.27;;;;;;;17.65;74.36;98762.53;5055671;28;20288;-70
2022/07/13 02:28:04;;;;;;;1.60;1.40;;;;;;;17.66;74.53;98751.53;5055174;28;20221;-70
2022/07/13 02:30:31;;;;;;;4.10;1.30;;;;;;;17.66;74.44;98751.53;5055555;28;20216;-70
2022/07/13 02:32:57;;;;;;;2.73;1.30;;;;;;;17.61;74.23;98756.03;5055428;28;20212;-70
2022/07/13 02:35:24;;;;;;;1.43;1.20;;;;;;;17.59;74.38;98758.13;5055188;28;20300;-70
2022/07/13 02:37:50;;;;;;;1.53;1.43;;;;;;;17.61;74.86;98747.97;5056078;28;20209;-70
2022/07/13 02:40:17;;;;;;;1.77;1.47;;;;;;;17.54;74.67;98750.00;5055317;28;20225;-70
2022/07/13 02:42:44;;;;;;;1.80;1.13;;;;;;;17.51;74.81;98735.16;5055298;28;20210;-70
2022/07/13 02:45:11;;;;;;;1.33;1.30;;;;;;;17.44;74.84;98739.91;5055615;28;20209;-70
2022/07/13 02:47:37;;;;;;;1.30;1.20;;;;;;;17.44;75.23;98745.28;5055111;28;20205;-70
2022/07/13 02:50:04;;;;;;;1.83;1.37;;;;;;;17.44;75.26;98747.16;5055131;28;20320;-70
2022/07/13 02:52:30;;;;;;;2.33;1.40;;;;;;;17.41;75.35;98740.41;5054865;28;20778;-70
2022/07/13 02:54:58;;;;;;;1.57;1.30;;;;;;;17.40;75.87;98744.16;5054783;28;20668;-70
2022/07/13 02:57:25;;;;;;;1.47;1.23;;;;;;;17.38;76.21;98746.22;5055063;28;20201;-70
2022/07/13 02:59:52;;;;;;;2.80;1.20;;;;;;;17.41;76.20;98739.59;5054288;28;20336;-70
2022/07/13 03:02:18;;;;;;;1.93;1.50;;;;;;;17.35;76.47;98743.22;5054851;28;20205;-70
2022/07/13 03:04:44;;;;;;;2.30;1.40;;;;;;;17.27;76.62;98744.44;5054984;28;20212;-70
2022/07/13 03:07:11;;;;;;;3.70;1.33;;;;;;;17.26;76.70;98745.53;5054499;28;20755;-70
2022/07/13 03:09:37;;;;;;;2.20;1.53;;;;;;;17.30;76.49;98748.53;5054346;28;20664;-70
2022/07/13 03:12:04;;;;;;;3.80;1.30;;;;;;;17.26;77.11;98742.84;5054730;28;20205;-70
2022/07/13 03:14:30;;;;;;;4.33;1.63;;;;;;;17.20;77.38;98749.16;5054627;28;20292;-70
2022/07/13 03:16:57;;;;;;;1.77;1.40;;;;;;;17.16;77.57;98747.22;5054223;28;20293;-69
2022/07/13 03:19:24;;;;;;;4.20;1.37;;;;;;;17.15;77.98;98751.78;5054162;28;20221;-69
2022/07/13 03:21:50;;;;;;;1.50;1.40;;;;;;;17.07;78.07;98737.94;5054281;28;20211;-70
2022/07/13 03:24:19;;;;;;;2.03;1.40;;;;;;;17.00;78.29;98738.09;5054311;28;20208;-69
2022/07/13 03:26:46;;;;;;;2.17;1.43;;;;;;;17.02;78.13;98744.06;5053921;28;20202;-70
2022/07/13 03:29:12;;;;;;;2.13;1.77;;;;;;;16.98;78.39;98745.59;5054074;28;20315;-70
2022/07/13 03:31:38;;;;;;;1.70;1.60;;;;;;;16.98;78.35;98734.03;5053562;28;20300;-70
2022/07/13 03:34:05;;;;;;;3.00;1.60;;;;;;;16.99;78.98;98743.72;5054044;28;20216;-69
2022/07/13 03:36:31;;;;;;;2.63;1.70;;;;;;;16.92;78.93;98740.38;5053470;28;20233;-70
2022/07/13 03:38:58;;;;;;;2.37;1.40;;;;;;;16.99;78.48;98741.00;5053875;28;20248;-69
2022/07/13 03:41:24;;;;;;;2.60;1.97;;;;;;;16.93;79.01;98748.19;5053825;28;20296;-69
2022/07/13 03:43:50;;;;;;;1.73;1.57;;;;;;;16.92;79.21;98743.84;5053350;28;20655;-70
2022/07/13 03:46:17;;;;;;;3.97;2.17;;;;;;;16.97;78.43;98746.63;5053687;28;20208;-70
2022/07/13 03:48:44;;;;;;;4.47;2.07;;;;;;;16.92;78.93;98743.06;5053410;28;20249;-70
2022/07/13 03:51:10;;;;;;;3.83;2.03;;;;;;;16.77;79.35;98740.91;5053748;28;20227;-70
2022/07/13 03:53:36;;;;;;;3.50;2.07;;;;;;;16.74;79.78;98744.06;5053655;28;20209;-70
2022/07/13 03:56:03;;;;;;;4.37;2.10;;;;;;;16.73;79.73;98747.03;5053695;28;20204;-70
2022/07/13 03:58:29;;;;;;;3.60;2.10;;;;;;;16.70;79.94;98736.75;5053486;28;20239;-70
2022/07/13 04:00:56;;;;;;;2.20;1.83;;;;;;;16.74;79.75;98735.22;5053752;28;20645;-69
2022/07/13 04:03:23;;;;;;;3.87;2.00;;;;;;;16.73;79.44;98726.34;5053261;28;20296;-70
2022/07/13 04:05:49;;;;;;;4.57;2.00;;;;;;;16.64;80.41;98741.22;5053285;28;20292;-70
2022/07/13 04:08:15;;;;;;;4.20;1.77;;;;;;;16.62;80.26;98743.34;5053258;28;20279;-69
2022/07/13 04:10:42;;;;;;;3.13;2.00;;;;;;;16.66;79.96;98741.81;5052523;28;20306;-70
2022/07/13 04:13:08;;;;;;;3.33;1.80;;;;;;;16.63;80.24;98731.53;5053479;28;20215;-70
2022/07/13 04:15:34;;;;;;;1.97;1.30;;;;;;;16.65;79.99;98729.41;5053476;28;20212;-70
2022/07/13 04:18:01;;;;;;;1.83;1.57;;;;;;;16.66;79.95;98724.88;5052876;28;20693;-70
2022/07/13 04:20:27;;;;;;;2.80;1.80;;;;;;;16.58;80.42;98723.38;5053425;28;20298;-70
2022/07/13 04:22:54;;;;;;;1.73;1.50;;;;;;;16.65;80.26;98723.25;5053097;28;20209;-69
2022/07/13 04:25:20;;;;;;;1.97;1.20;;;;;;;16.67;80.26;98715.75;5053015;28;20208;-69
2022/07/13 04:27:46;;;;;;;1.87;1.60;;;;;;;16.67;80.29;98719.25;5053020;28;20304;-70
2022/07/13 04:30:13;;;;;;;1.70;1.60;;;;;;;16.73;80.01;98712.91;5053175;28;20308;-69
2022/07/13 04:32:39;;;;;;;2.57;1.70;;;;;;;16.72;80.11;98708.59;5053160;28;20295;-70
2022/07/13 04:35:06;;;;;;;2.57;1.40;;;;;;;16.75;79.61;98705.44;5052702;28;20232;-70
2022/07/13 04:37:33;;;;;;;2.47;1.63;;;;;;;16.78;79.63;98707.63;5052591;28;20700;-69
2022/07/13 04:39:59;;;;;;;3.77;1.53;;;;;;;16.79;79.32;98703.88;5052665;28;20309;-70
2022/07/13 04:42:25;;;;;;;2.10;1.50;;;;;;;16.84;79.40;98714.72;5052910;28;20291;-70
2022/07/13 04:44:52;;;;;;;3.77;1.37;;;;;;;16.84;79.16;98717.41;5052613;28;20231;-70
2022/07/13 04:47:18;;;;;;;2.00;1.77;;;;;;;16.81;78.84;98717.91;5052163;28;20209;-70
2022/07/13 04:49:44;;;;;;;2.37;1.70;;;;;;;16.94;78.35;98716.75;5052686;28;20233;-70
2022/07/13 04:52:11;;;;;;;4.10;1.90;;;;;;;16.97;78.69;98711.72;5052533;28;20653;-70
2022/07/13 04:54:37;;;;;;;2.97;1.90;;;;;;;17.02;78.68;98722.56;5052443;28;20663;-69
2022/07/13 04:57:04;;;;;;;2.60;1.73;;;;;;;17.16;78.53;98725.72;5052441;28;20292;-70
2022/07/13 04:59:30;;;;;;;4.40;1.50;;;;;;;17.26;77.82;98725.88;5052163;28;20229;-70
2022/07/13 05:01:56;;;;;;;4.17;1.73;;;;;;;17.35;77.26;98727.91;5052494;28;20303;-70
2022/07/13 05:04:24;;;;;;;1.60;1.50;;;;;;;17.40;76.16;98732.56;5052449;28;20258;-70
2022/07/13 05:06:50;;;;;;;2.03;1.47;;;;;;;17.49;75.16;98731.94;5052267;28;20701;-69
2022/07/13 05:09:18;;;;;;;3.40;1.60;;;;;;;17.70;74.94;98727.66;5052287;28;20221;-70
2022/07/13 05:11:44;;;;;;;1.60;1.50;;;;;;;18.02;73.33;98725.94;5052418;28;20216;-69
2022/07/13 05:14:11;;;;;;;2.70;1.57;;;;;;;18.00;72.61;98718.09;5052129;28;20292;-69
2022/07/13 05:16:37;;;;;;;3.53;1.73;;;;;;;18.17;71.77;98718.03;5051916;28;20299;-70
2022/07/13 05:19:04;;;;;;;2.60;2.10;;;;;;;18.57;70.38;98722.03;5052120;28;20221;-70
2022/07/13 05:21:30;;;;;;;3.17;1.83;;;;;;;18.76;69.80;98727.88;5052116;28;20212;-70
2022/07/13 05:23:56;;;;;;;4.27;1.93;;;;;;;18.81;69.51;98725.22;5055647;28;20236;-70
2022/07/13 05:26:23;;;;;;;3.93;1.60;;;;;;;19.76;66.06;98735.97;5055671;28;20671;-70
2022/07/13 05:28:49;;;;;;;3.20;1.70;;;;;;;20.07;64.06;98735.84;5055813;28;20229;-70
2022/07/13 05:31:16;;;;;;;3.53;1.93;;;;;;;20.13;63.15;98731.34;5055848;28;20205;-70
2022/07/13 05:33:42;;;;;;;4.27;1.97;;;;;;;20.32;63.15;98722.50;5055792;28;20213;-70
2022/07/13 05:36:09;;;;;;;2.33;1.87;;;;;;;19.72;65.30;98721.38;5055406;28;20573;-70
2022/07/13 05:38:35;;;;;;;5.50;1.90;;;;;;;19.87;65.47;98724.16;5055506;28;20313;-70
2022/07/13 05:41:01;;;;;;;1.93;1.70;;;;;;;19.81;66.02;98722.50;5055450;28;20296;-69
2022/07/13 05:43:28;;;;;;;3.97;1.60;;;;;;;19.49;66.07;98712.59;5055107;28;20641;-70
2022/07/13 05:45:54;;;;;;;4.90;2.00;;;;;;;19.69;65.81;98715.41;5054869;28;20292;-70
2022/07/13 05:48:21;;;;;;;6.33;2.10;;;;;;;19.29;67.07;98712.47;5055000;28;20719;-70
2022/07/13 05:50:47;;;;;;;3.73;1.97;;;;;;;19.00;67.98;98713.81;5055557;28;20205;-70
2022/07/13 05:53:14;;;;;;;2.60;1.87;;;;;;;18.90;68.48;98715.59;5056187;28;20296;-70
2022/07/13 05:55:41;;;;;;;2.80;1.73;;;;;;;18.77;69.27;98724.13;5055573;28;20201;-70
2022/07/13 05:58:07;;;;;;;3.93;2.10;;;;;;;18.68;69.93;98729.13;5054617;28;20572;-69
2022/07/13 06:00:33;;;;;;;4.13;1.73;;;;;;;18.82;69.58;98724.16;5055245;28;20281;-69
2022/07/13 06:03:00;;;;;;;2.73;1.97;;;;;;;18.98;69.77;98725.91;5055083;28;20690;-69
2022/07/13 06:05:26;;;;;;;2.57;2.10;;;;;;;18.91;69.43;98720.75;5055649;28;20300;-69
2022/07/13 06:07:53;;;;;;;6.43;2.40;;;;;;;18.82;69.02;98722.28;5055338;28;20295;-70
2022/07/13 06:10:19;;;;;;;3.73;1.97;;;;;;;18.76;70.24;98726.00;5054995;28;20311;-70
2022/07/13 06:12:46;;;;;;;7.83;2.83;;;;;;;18.78;69.81;98713.06;5054351;28;20644;-70
2022/07/13 06:15:12;;;;;;;6.60;2.20;;;;;;;18.80;69.74;98708.25;5055406;28;20216;-70
2022/07/13 06:17:38;;;;;;;6.63;2.37;;;;;;;18.85;69.23;98702.91;5055578;28;20201;-70
2022/07/13 06:20:06;;;;;;;8.50;2.83;;;;;;;18.94;69.22;98703.25;5054987;28;20605;-70
2022/07/13 06:22:33;;;;;;;10.70;3.00;;;;;;;19.02;69.06;98708.16;5054639;28;20538;-70
2022/07/13 06:24:59;;;;;;;5.30;2.60;;;;;;;19.26;68.25;98706.78;5054990;28;20206;-69
2022/07/13 06:27:25;;;;;;;7.63;2.93;;;;;;;19.37;66.71;98713.88;5054685;28;20221;-69
2022/07/13 06:29:52;;;;;;;6.87;2.70;;;;;;;19.34;67.25;98709.81;5054253;28;20582;-68
2022/07/13 06:32:18;;;;;;;7.00;2.57;;;;;;;19.32;67.18;98719.22;5055411;28;20304;-70
2022/07/13 06:34:45;;;;;;;4.03;2.50;;;;;;;19.40;66.81;98719.56;5054227;28;20201;-71
2022/07/13 06:37:11;;;;;;;5.10;2.77;;;;;;;19.46;66.70;98717.72;5055597;28;20244;-71
2022/07/13 06:39:37;;;;;;;5.53;2.57;;;;;;;19.61;66.16;98709.72;5054991;28;20225;-71
2022/07/13 06:42:04;;;;;;;7.33;2.60;;;;;;;19.57;66.35;98713.19;5055457;28;20212;-71
2022/07/13 06:44:30;;;;;;;5.70;3.00;;;;;;;19.64;66.41;98715.38;5054418;28;20209;-71
2022/07/13 06:46:59;;;;;;;7.00;3.10;;;;;;;19.73;66.24;98725.69;5055044;28;20210;-71
2022/07/13 06:49:25;;;;;;;4.90;2.67;;;;;;;19.82;65.35;98726.81;5055387;28;20611;-72
2022/07/13 06:51:52;;;;;;;5.50;2.90;;;;;;;19.87;65.66;98729.53;5055553;28;20208;-72
2022/07/13 06:54:18;;;;;;;9.73;2.90;;;;;;;20.02;65.33;98724.25;5055121;28;20296;-71
2022/07/13 06:56:45;;;;;;;2.80;2.27;;;;;;;20.29;64.66;98716.81;5055227;28;20296;-71
2022/07/13 06:59:11;;;;;;;6.33;3.13;;;;;;;20.34;63.95;98725.75;5055606;28;20225;-72
2022/07/13 07:01:38;;;;;;;5.73;2.40;;;;;;;20.46;64.02;98720.94;5055718;28;20213;-72
2022/07/13 07:04:04;;;;;;;8.77;2.40;;;;;;;20.63;62.84;98732.31;5055363;28;20296;-71
2022/07/13 07:06:31;;;;;;;11.73;2.83;;;;;;;20.95;62.21;98732.94;5055469;28;20296;-71
2022/07/13 07:08:58;;;;;;;9.20;3.00;;;;;;;21.03;63.36;98723.50;5054976;28;20229;-71
2022/07/13 07:11:25;;;;;;;4.70;2.43;;;;;;;21.18;60.88;98731.59;5055244;28;20212;-71
2022/07/13 07:13:52;;;;;;;6.10;2.67;;;;;;;21.29;61.59;98727.81;5054829;28;20746;-71
2022/07/13 07:16:18;;;;;;;10.23;3.03;;;;;;;21.41;60.19;98722.94;5055115;28;20239;-71
2022/07/13 07:18:45;;;;;;;8.87;2.97;;;;;;;21.59;60.20;98719.66;5054832;28;20315;-71
2022/07/13 07:21:11;;;;;;;9.13;2.90;;;;;;;21.61;59.13;98710.19;5054950;28;20295;-71
2022/07/13 07:23:37;;;;;;;6.50;2.70;;;;;;;21.63;59.62;98720.75;5055600;28;20208;-71
2022/07/13 07:26:04;;;;;;;4.30;2.27;;;;;;;21.63;58.87;98707.19;5055172;28;20208;-71
2022/07/13 07:28:31;;;;;;;4.07;2.20;;;;;;;21.85;58.51;98705.84;5054648;28;20257;-71
2022/07/13 07:30:57;;;;;;;5.63;2.60;;;;;;;21.89;57.47;98698.75;5054406;28;20699;-71
2022/07/13 07:33:24;;;;;;;4.60;2.50;;;;;;;21.92;56.85;98705.53;5054402;28;20299;-71
2022/07/13 07:35:50;;;;;;;6.17;2.40;;;;;;;22.06;57.16;98695.75;5054210;28;20664;-71
2022/07/13 07:38:16;;;;;;;3.73;2.17;;;;;;;22.25;56.29;98694.03;5054034;28;20312;-71
2022/07/13 07:40:43;;;;;;;4.53;1.90;;;;;;;22.46;53.95;98690.97;5054101;28;20208;-71
2022/07/13 07:43:09;;;;;;;3.83;1.87;;;;;;;22.69;54.43;98695.69;5054043;28;20278;-71
2022/07/13 07:45:36;;;;;;;5.67;1.90;;;;;;;22.87;53.37;98694.22;5054127;28;20259;-71
2022/07/13 07:48:03;;;;;;;4.57;1.93;;;;;;;23.13;54.00;98695.63;5054096;28;20287;-71
2022/07/13 07:50:29;;;;;;;6.40;2.45;;;;;;;23.11;52.19;98685.06;5054208;28;20225;-72
2022/07/13 07:52:55;;;;;;;4.55;1.75;;;;;;;23.38;51.82;98687.31;5053979;28;20222;-71
2022/07/13 07:55:22;;;;;;;8.48;4.25;;;;;;;23.53;52.31;98692.59;5053440;28;20327;-71
2022/07/13 07:57:50;;;;;;;6.35;5.38;;;;;;;23.84;50.33;98696.59;5053101;28;20201;-70
2022/07/13 08:00:17;;;;;;;4.93;2.05;;;;;;;24.23;48.50;98691.81;5053505;28;20284;-71
2022/07/13 08:02:45;;;;;;;6.22;1.80;;;;;;;24.33;48.65;98695.19;5054288;28;20212;-71
2022/07/13 08:05:11;;;;;;;3.03;1.90;;;;;;;24.49;48.63;98695.81;5053690;28;20212;-71
2022/07/13 08:07:43;;;;;;;6.70;2.10;;;;;;;24.63;49.50;98694.00;5053420;28;20258;-70
2022/07/13 08:10:10;;;;;;;6.50;2.10;;;;;;;25.05;48.03;98691.19;5053395;28;20236;-70
2022/07/13 08:12:37;;;;;;;3.63;1.70;;;;;;;25.04;47.35;98692.28;5053393;28;20216;-71
2022/07/13 08:15:07;;;;;;;6.15;1.98;;;;;;;24.75;47.84;98683.50;5053366;28;20255;-71
2022/07/13 08:17:34;;;;;;;4.75;1.80;;;;;;;24.49;48.85;98682.22;5053002;28;20240;-70
2022/07/13 08:20:01;;;;;;;2.90;1.55;;;;;;;24.53;47.94;98689.50;5052916;28;20227;-71
2022/07/13 08:22:27;;;;;;;3.22;1.52;;;;;;;24.67;48.72;98687.69;5052679;28;20686;-71
2022/07/13 08:24:54;;;;;;;3.83;1.77;;;;;;;24.67;48.09;98682.25;5053113;28;20215;-71
2022/07/13 08:27:21;;;;;;;3.30;1.70;;;;;;;24.65;47.61;98692.59;5053087;28;20201;-71
2022/07/13 08:29:47;;;;;;;4.78;1.70;;;;;;;24.65;47.67;98680.94;5052573;28;20612;-71
2022/07/13 08:32:14;;;;;;;5.55;2.05;;;;;;;24.97;47.33;98687.22;5052800;28;20613;-71
2022/07/13 08:40:10;;;;;;;6.32;1.65;;;;;;;24.93;46.10;98678.03;5052767;28;20223;-70
2022/07/13 08:42:38;;;;;;;3.47;1.58;;;;;;;25.06;45.78;98682.72;5053285;28;20213;-71
2022/07/13 08:45:05;;;;;;;5.90;1.63;;;;;;;25.42;46.00;98681.03;5052515;28;20236;-71
2022/07/13 08:47:32;;;;;;;2.53;1.50;;;;;;;25.28;45.97;98685.66;5052812;28;20296;-71
2022/07/13 08:50:03;;;;;;;4.65;1.80;;;;;;;25.47;45.17;98677.44;5052531;28;20233;-71
2022/07/13 08:52:31;;;;;;;6.28;1.60;;;;;;;25.43;44.08;98677.22;5053334;28;20193;-71
2022/07/13 08:54:59;;;;;;;2.92;1.50;;;;;;;25.51;44.99;98679.25;5053090;28;20205;-71
2022/07/13 08:57:26;;;;;;;4.72;1.60;;;;;;;25.76;44.14;98675.25;5054334;28;20308;-71
2022/07/13 08:59:53;;;;;;;6.03;1.52;;;;;;;25.80;42.58;98676.25;5056411;28;20677;-71
2022/07/13 09:02:19;;;;;;;3.97;1.70;;;;;;;25.79;43.17;98671.91;5057032;28;20292;-71
2022/07/13 09:04:46;;;;;;;2.65;1.20;;;;;;;25.73;40.77;98659.53;5056689;28;20209;-71
2022/07/13 09:07:13;;;;;;;3.90;1.33;;;;;;;25.67;40.91;98671.59;5055733;28;20215;-71
2022/07/13 09:09:39;;;;;;;3.80;1.85;;;;;;;25.91;42.06;98662.13;5056475;28;20257;-71
2022/07/13 09:12:16;;;;;;;1.45;1.15;;;;;;;25.99;39.68;98661.47;5056600;28;20237;-71
2022/07/13 09:14:44;;;;;;;3.58;1.38;;;;;;;25.81;40.79;98661.50;5056498;28;20208;-70
2022/07/13 09:17:32;;;;;;;2.10;1.25;;;;;;;25.84;39.45;98667.19;5056240;28;20296;-71
2022/07/13 09:20:04;;;;;;;2.25;1.52;;;;;;;25.92;39.77;98669.22;5056166;28;20317;-71
2022/07/13 09:22:30;;;;;;;1.60;1.50;;;;;;;26.03;40.18;98667.09;5056314;28;20190;-71
2022/07/13 09:24:57;;;;;;;3.40;1.23;;;;;;;26.55;39.67;98667.31;5056464;28;20582;-71
2022/07/13 09:27:24;;;;;;;2.58;1.20;;;;;;;26.77;38.18;98661.91;5056732;28;20327;-71
2022/07/13 09:29:50;;;;;;;1.33;1.23;;;;;;;26.96;38.33;98678.13;5055832;28;20297;-71
2022/07/13 09:32:16;;;;;;;5.45;1.23;;;;;;;27.09;38.39;98664.41;5056690;28;20236;-71
2022/07/13 09:34:57;;;;;;;3.67;1.10;;;;;;;26.34;38.25;98660.72;5056285;28;20205;-71
2022/07/13 09:37:27;;;;;;;2.22;1.27;;;;;;;26.62;38.34;98661.47;5056186;28;20261;-71
2022/07/13 09:40:00;;;;;;;3.22;1.35;;;;;;;26.60;38.79;98669.16;5055457;28;20229;-71
2022/07/13 09:42:31;;;;;;;5.88;1.35;;;;;;;26.91;38.88;98659.16;5055985;28;20553;-71
2022/07/13 09:47:48;;;;;;;2.28;1.10;;;;;;;27.26;33.92;98661.00;5055793;28;20171;-71
2022/07/13 09:50:17;;;;;;;2.65;1.00;;;;;;;27.56;31.46;98665.69;5056016;28;20229;-71
2022/07/13 09:52:45;;;;;;;3.50;0.90;;;;;;;27.79;31.55;98660.94;5055795;28;20209;-71
2022/07/13 09:55:13;;;;;;;1.08;1.00;;;;;;;28.03;32.10;98666.88;5055880;28;20206;-71
2022/07/13 09:57:47;;;;;;;4.50;1.02;;;;;;;27.92;31.87;98669.09;5055859;28;20255;-71
2022/07/13 10:00:17;;;;;;;2.30;0.90;;;;;;;28.04;32.65;98661.09;5055378;28;20279;-71
2022/07/13 10:02:49;;;;;;;4.43;1.00;;;;;;;28.00;31.62;98662.84;5055724;28;20235;-71
2022/07/13 10:05:18;;;;;;;2.78;1.20;;;;;;;27.97;32.47;98655.28;5055729;28;20325;-71
2022/07/13 10:07:47;;;;;;;1.00;1.00;;;;;;;28.34;33.09;98665.66;5055636;28;20211;-70
2022/07/13 10:10:16;;;;;;;1.15;0.93;;;;;;;28.65;31.93;98669.13;5054134;28;20229;-71
2022/07/13 10:12:43;;;;;;;2.88;1.10;;;;;;;27.92;32.54;98666.34;5055208;28;20655;-71
2022/07/13 10:15:13;;;;;;;3.05;1.10;;;;;;;27.78;32.30;98667.56;5055185;28;20216;-71
2022/07/13 10:17:40;;;;;;;1.92;1.10;;;;;;;27.95;33.17;98659.44;5055397;28;20205;-70
2022/07/13 10:20:10;;;;;;;1.88;1.30;;;;;;;27.59;32.06;98662.34;5055374;28;20321;-71
2022/07/13 10:22:43;;;;;;;3.08;1.35;;;;;;;28.01;32.68;98647.25;5055452;28;20277;-71
2022/07/13 10:25:10;;;;;;;1.80;1.30;;;;;;;28.43;32.04;98652.84;5055684;28;20297;-71
2022/07/13 10:27:38;;;;;;;3.22;1.10;;;;;;;28.81;31.87;98656.56;5055201;28;20209;-71
2022/07/13 10:30:16;;;;;;;2.95;1.42;;;;;;;28.76;31.78;98659.44;5055063;28;20267;-71
2022/07/13 10:32:43;;;;;;;1.48;1.00;;;;;;;29.20;31.70;98659.13;5054590;28;20567;-71
2022/07/13 10:35:16;;;;;;;3.05;1.15;;;;;;;29.19;30.98;98660.25;5055000;28;20206;-71
2022/07/13 10:37:58;;;;;;;1.55;1.05;;;;;;;29.22;31.14;98653.31;5054968;28;20200;-71
2022/07/13 10:40:36;;;;;;;2.42;1.08;;;;;;;29.06;30.12;98653.03;5054738;28;20232;-71
2022/07/13 10:43:04;;;;;;;1.73;0.98;;;;;;;29.29;29.51;98654.44;5054920;28;20209;-70
2022/07/13 10:45:33;;;;;;;1.48;1.10;;;;;;;29.17;29.57;98648.03;5055143;28;20255;-71
2022/07/13 10:48:02;;;;;;;1.80;1.00;;;;;;;28.25;29.55;98642.16;5054813;28;20212;-70
2022/07/13 10:50:34;;;;;;;4.55;1.20;;;;;;;28.75;31.01;98644.16;5054493;28;20637;-71
2022/07/13 10:53:01;;;;;;;1.20;1.10;;;;;;;29.10;29.64;98651.25;5054854;28;20197;-71
2022/07/13 10:55:37;;;;;;;1.33;1.20;;;;;;;29.16;26.83;98639.00;5054741;28;20213;-71
2022/07/13 10:58:40;;;;;;;2.58;1.10;;;;;;;29.45;27.08;98641.03;5054492;28;20308;-71
2022/07/13 11:01:35;;;;;;;2.30;0.95;;;;;;;29.06;26.58;98630.31;5054404;28;20754;-71
2022/07/13 11:04:02;;;;;;;1.45;1.02;;;;;;;29.01;26.24;98630.47;5054235;28;20206;-71
2022/07/13 11:06:29;;;;;;;1.65;0.80;;;;;;;29.16;24.83;98630.78;5054272;28;20300;-71
2022/07/13 11:09:21;;;;;;;1.67;0.90;;;;;;;28.88;24.80;98632.25;5054367;28;20338;-71
2022/07/13 11:11:53;;;;;;;1.50;1.00;;;;;;;28.96;26.50;98623.22;5054038;28;20327;-71
2022/07/13 11:14:38;;;;;;;3.25;1.17;;;;;;;29.54;26.48;98611.66;5054082;28;20722;-71
2022/07/13 11:17:12;;;;;;;1.38;1.27;;;;;;;30.10;27.01;98603.81;5054363;28;20263;-71
2022/07/13 11:19:57;;;;;;;1.48;1.30;;;;;;;30.01;26.76;98610.47;5053658;28;20240;-71
2022/07/13 11:22:26;;;;;;;3.60;1.65;;;;;;;29.90;26.25;98615.56;5054054;28;20190;-71
2022/07/13 11:25:15;;;;;;;4.45;1.20;;;;;;;29.77;26.14;98611.09;5054201;28;20212;-71
2022/07/13 11:28:06;;;;;;;1.65;1.05;;;;;;;29.39;26.53;98609.47;5053668;28;20601;-71
2022/07/13 11:30:36;;;;;;;2.97;0.95;;;;;;;29.57;25.24;98606.34;5054067;28;20213;-70
2022/07/13 11:33:08;;;;;;;1.92;0.98;;;;;;;29.42;24.40;98604.13;5054221;28;20193;-71
2022/07/13 11:35:35;;;;;;;4.78;1.15;;;;;;;29.17;24.61;98607.72;5054824;28;20197;-72
2022/07/13 11:38:02;;;;;;;1.70;0.90;;;;;;;29.11;25.05;98603.56;5053797;28;20209;-71
2022/07/13 11:40:33;;;;;;;1.50;0.93;;;;;;;29.30;24.99;98597.72;5054003;28;20292;-71
2022/07/13 11:43:01;;;;;;;2.35;1.10;;;;;;;29.65;24.95;98591.81;5053942;28;20236;-71
2022/07/13 11:45:32;;;;;;;2.78;1.00;;;;;;;29.78;24.54;98587.22;5053578;28;20211;-71